Time;durP1;ratioP1;P1;durP2;ratioP2;P2;SDS_P1;SDS_P2;PMS_P1;PMS_P2;Temp;Humidity;BMP_temperature;BMP_pressure;BME280_temperature;BME280_humidity;BME280_pressure;Samples;Min_cycle;Max_cycle;Signal;HPM_P1;HPM_P2
2022/01/22 00:00:55;;;;;;;13.03;6.97;;;6.20;99.90;;;;;;5002903;28;20458;-83
2022/01/22 00:03:22;;;;;;;8.43;5.50;;;6.20;99.90;;;;;;5002534;28;20456;-83
2022/01/22 00:05:49;;;;;;;8.97;6.47;;;6.20;99.90;;;;;;4990441;28;20498;-82
2022/01/22 00:08:16;;;;;;;7.37;5.70;;;6.20;99.90;;;;;;4984441;28;20470;-81
2022/01/22 00:10:44;;;;;;;8.90;6.47;;;6.20;99.90;;;;;;4992339;28;20562;-82
2022/01/22 00:15:44;;;;;;;14.40;6.70;;;6.20;99.90;;;;;;4998066;28;20481;-83
2022/01/22 00:18:14;;;;;;;8.60;6.70;;;6.20;99.90;;;;;;4998306;28;20466;-83
2022/01/22 00:20:41;;;;;;;18.50;6.53;;;6.20;99.90;;;;;;4984435;28;20888;-83
2022/01/22 00:23:07;;;;;;;12.70;6.83;;;6.20;99.90;;;;;;4981711;28;20510;-81
2022/01/22 00:25:36;;;;;;;10.77;7.10;;;6.30;99.90;;;;;;4978753;28;20490;-83
2022/01/22 00:28:03;;;;;;;15.70;7.73;;;6.30;99.90;;;;;;4980556;28;20508;-81
2022/01/22 00:30:30;;;;;;;13.43;7.10;;;6.30;99.90;;;;;;4991850;28;20468;-82
2022/01/22 00:32:57;;;;;;;8.63;7.33;;;6.30;99.90;;;;;;4992493;28;20460;-81
2022/01/22 00:35:24;;;;;;;12.23;7.63;;;6.30;99.90;;;;;;4995289;28;21149;-84
2022/01/22 00:37:52;;;;;;;9.83;6.60;;;6.30;99.90;;;;;;5006183;28;20447;-80
2022/01/22 00:40:20;;;;;;;11.80;7.40;;;6.30;99.90;;;;;;5003753;28;20460;-82
2022/01/22 00:42:47;;;;;;;11.70;8.33;;;6.30;99.90;;;;;;4994488;28;20456;-82
2022/01/22 00:45:16;;;;;;;15.87;8.13;;;6.30;99.90;;;;;;4992422;28;20904;-83
2022/01/22 00:47:42;;;;;;;11.80;7.90;;;6.30;99.90;;;;;;4990155;28;20945;-83
2022/01/22 00:50:13;;;;;;;11.77;8.40;;;6.20;99.90;;;;;;4991792;28;20476;-83
2022/01/22 00:52:41;;;;;;;12.30;8.03;;;6.20;99.90;;;;;;4994539;28;20450;-83
2022/01/22 00:55:08;;;;;;;11.30;8.10;;;6.20;99.90;;;;;;5001367;28;20483;-81
2022/01/22 00:57:35;;;;;;;11.30;8.47;;;6.20;99.90;;;;;;4998487;28;20456;-82
2022/01/22 01:00:05;;;;;;;12.23;7.83;;;6.20;99.90;;;;;;4998636;28;20456;-81
2022/01/22 01:02:33;;;;;;;10.53;8.60;;;6.20;99.90;;;;;;4982801;28;20495;-82
2022/01/22 01:05:00;;;;;;;16.67;9.77;;;6.20;99.90;;;;;;4981216;28;20491;-83
2022/01/22 01:07:27;;;;;;;13.23;9.63;;;6.20;99.90;;;;;;4982467;28;20457;-85
2022/01/22 01:09:53;;;;;;;11.27;8.10;;;6.20;99.90;;;;;;4982546;28;22496;-83
2022/01/22 01:12:26;;;;;;;10.50;8.10;;;6.20;99.90;;;;;;4981921;28;20787;-83
2022/01/22 01:15:18;;;;;;;11.47;8.80;;;6.20;99.90;;;;;;4981981;28;20478;-81
2022/01/22 01:18:04;;;;;;;15.70;9.40;;;6.20;99.90;;;;;;4983261;28;20462;-80
2022/01/22 01:34:14;;;;;;;13.93;7.93;;;6.20;99.90;;;;;;4987213;28;20980;-82
2022/01/22 01:36:42;;;;;;;14.70;9.53;;;6.20;99.90;;;;;;4998496;28;20459;-82
2022/01/22 01:39:13;;;;;;;17.00;9.90;;;6.20;99.90;;;;;;4994971;28;20586;-82
2022/01/22 01:42:03;;;;;;;15.43;10.60;;;6.20;99.90;;;;;;4980432;28;20444;-80
2022/01/22 01:44:29;;;;;;;18.93;10.27;;;6.20;99.90;;;;;;4981623;28;20486;-81
2022/01/22 01:46:59;;;;;;;16.37;10.07;;;6.20;99.90;;;;;;4982296;28;20471;-81
2022/01/22 01:49:28;;;;;;;17.30;9.90;;;6.10;99.90;;;;;;4987272;28;20455;-83
2022/01/22 01:51:57;;;;;;;11.40;9.70;;;6.10;99.90;;;;;;4982471;28;20463;-82
2022/01/22 01:54:38;;;;;;;13.07;9.93;;;6.20;99.90;;;;;;4982701;28;21113;-83
2022/01/22 01:57:27;;;;;;;13.53;10.30;;;6.10;99.90;;;;;;4985250;28;20455;-84
2022/01/22 01:59:56;;;;;;;15.33;9.70;;;6.10;99.90;;;;;;4983592;28;20487;-83
2022/01/22 02:02:24;;;;;;;15.77;10.73;;;6.10;99.90;;;;;;4984923;28;20466;-81
2022/01/22 02:04:51;;;;;;;16.43;10.90;;;6.10;99.90;;;;;;4982318;28;22602;-81
2022/01/22 02:07:18;;;;;;;15.83;11.47;;;6.10;99.90;;;;;;4981143;28;20470;-82
2022/01/22 02:09:45;;;;;;;15.10;10.70;;;6.00;99.90;;;;;;4986114;28;20448;-82
2022/01/22 02:25:59;;;;;;;16.97;11.20;;;6.10;99.90;;;;;;4996447;28;20505;-83
2022/01/22 02:28:26;;;;;;;12.67;11.00;;;6.10;99.90;;;;;;4990773;28;20539;-84
2022/01/22 02:30:59;;;;;;;15.37;11.87;;;6.10;99.90;;;;;;4989025;28;20553;-82
2022/01/22 02:36:13;;;;;;;17.20;12.07;;;6.20;99.90;;;;;;4986424;28;20518;-83
2022/01/22 02:41:21;;;;;;;15.87;11.50;;;6.10;99.90;;;;;;4989424;28;20473;-79
2022/01/22 02:43:48;;;;;;;14.10;11.43;;;6.20;99.90;;;;;;4999465;28;20453;-81
2022/01/22 02:46:22;;;;;;;16.70;12.13;;;6.20;99.90;;;;;;5001110;28;20490;-81
2022/01/22 02:48:49;;;;;;;18.93;13.13;;;6.20;99.90;;;;;;5016660;28;20833;-82
2022/01/22 02:51:16;;;;;;;14.37;12.77;;;6.20;99.90;;;;;;5003837;28;20470;-82
2022/01/22 02:53:43;;;;;;;16.30;12.47;;;6.20;99.90;;;;;;4998985;28;20495;-81
2022/01/22 02:56:10;;;;;;;15.20;13.70;;;6.10;99.90;;;;;;4996926;28;20479;-81
2022/01/22 02:58:37;;;;;;;17.87;13.20;;;6.10;99.90;;;;;;4997484;28;20458;-81
2022/01/22 03:01:04;;;;;;;15.20;13.53;;;6.20;99.90;;;;;;4989859;28;20462;-82
2022/01/22 03:03:31;;;;;;;19.13;13.50;;;6.10;99.90;;;;;;4984139;28;20489;-83
2022/01/22 03:05:58;;;;;;;14.87;12.53;;;6.10;99.90;;;;;;4994113;28;20520;-82
2022/01/22 03:08:28;;;;;;;14.90;13.40;;;6.10;99.90;;;;;;4994349;28;21766;-81
2022/01/22 03:10:55;;;;;;;15.60;12.80;;;6.10;99.90;;;;;;4994954;28;20463;-82
2022/01/22 03:18:47;;;;;;;20.57;15.53;;;6.10;99.90;;;;;;4982552;28;20456;-82
2022/01/22 03:29:30;;;;;;;15.40;12.40;;;6.10;99.90;;;;;;4980310;28;20451;-82
2022/01/22 03:31:57;;;;;;;19.37;14.53;;;6.10;99.90;;;;;;4982048;28;20550;-82
2022/01/22 03:34:23;;;;;;;20.87;14.03;;;6.10;99.90;;;;;;4982030;28;20474;-83
2022/01/22 03:36:50;;;;;;;19.40;13.60;;;6.10;99.90;;;;;;4984949;28;20490;-81
2022/01/22 03:39:19;;;;;;;21.80;14.37;;;6.10;99.90;;;;;;4984795;28;20466;-82
2022/01/22 03:41:47;;;;;;;17.83;14.10;;;6.10;99.90;;;;;;4985864;28;20476;-83
2022/01/22 03:44:14;;;;;;;16.60;13.90;;;6.10;99.90;;;;;;4983509;28;20472;-83
2022/01/22 03:46:41;;;;;;;28.20;14.30;;;6.10;99.90;;;;;;4983955;28;20868;-83
2022/01/22 03:49:10;;;;;;;18.60;14.07;;;6.10;99.90;;;;;;4983521;28;20487;-83
2022/01/22 03:51:37;;;;;;;25.33;14.60;;;6.10;99.90;;;;;;4983447;28;20514;-83
2022/01/22 03:54:04;;;;;;;20.57;13.50;;;6.10;99.90;;;;;;4984462;28;20458;-82
2022/01/22 03:56:31;;;;;;;22.70;14.73;;;6.10;99.90;;;;;;4984349;28;20517;-83
2022/01/22 03:58:57;;;;;;;17.30;13.60;;;6.00;99.90;;;;;;4982978;28;21513;-82
2022/01/22 04:03:59;;;;;;;17.53;13.77;;;6.10;99.90;;;;;;4984636;28;21307;-84
2022/01/22 04:09:05;;;;;;;19.77;13.50;;;6.10;99.90;;;;;;4983259;28;20444;-81
2022/01/22 04:11:36;;;;;;;19.03;12.67;;;6.10;99.90;;;;;;4982975;28;20448;-82
2022/01/22 04:14:05;;;;;;;16.47;12.90;;;6.10;99.90;;;;;;4979622;28;20471;-81
2022/01/22 04:16:33;;;;;;;16.33;13.17;;;6.10;99.90;;;;;;4995934;28;20470;-82
2022/01/22 04:24:51;;;;;;;21.40;14.27;;;6.10;99.90;;;;;;4995692;28;20464;-82
2022/01/22 04:27:23;;;;;;;18.03;13.27;;;6.20;99.90;;;;;;4993899;28;20459;-83
2022/01/22 04:30:00;;;;;;;17.77;12.93;;;6.20;99.90;;;;;;4994373;28;21018;-83
2022/01/22 04:32:31;;;;;;;24.63;13.50;;;6.20;99.90;;;;;;4998718;28;20456;-83
2022/01/22 04:34:58;;;;;;;19.33;14.37;;;6.20;99.90;;;;;;4991249;28;20478;-83
2022/01/22 04:37:25;;;;;;;21.17;14.87;;;6.20;99.90;;;;;;4993598;28;20585;-83
2022/01/22 04:39:52;;;;;;;21.30;14.43;;;6.20;99.90;;;;;;4991386;28;20455;-82
2022/01/22 04:42:20;;;;;;;23.30;14.73;;;6.20;99.90;;;;;;4992439;28;20960;-81
2022/01/22 04:45:02;;;;;;;16.57;14.20;;;6.20;99.90;;;;;;4991013;28;20490;-82
2022/01/22 04:47:33;;;;;;;19.90;13.10;;;6.10;99.90;;;;;;4976676;28;20463;-82
2022/01/22 04:55:31;;;;;;;16.57;14.20;;;6.20;99.90;;;;;;4993940;28;20491;-83
2022/01/22 04:57:57;;;;;;;18.23;13.87;;;6.20;99.90;;;;;;4990894;28;20528;-81
2022/01/22 05:00:24;;;;;;;21.87;13.97;;;6.20;99.90;;;;;;5005571;28;20498;-84
2022/01/22 05:02:51;;;;;;;23.73;15.43;;;6.20;99.90;;;;;;4992575;28;20451;-83
2022/01/22 05:05:18;;;;;;;21.40;15.40;;;6.30;99.90;;;;;;4991188;28;20490;-80
2022/01/22 05:07:45;;;;;;;20.80;14.57;;;6.20;99.90;;;;;;4989746;28;20455;-82
2022/01/22 05:10:11;;;;;;;18.10;14.00;;;6.20;99.90;;;;;;4989496;28;20501;-83
2022/01/22 05:12:38;;;;;;;24.33;15.30;;;6.20;99.90;;;;;;4992976;28;20447;-82
2022/01/22 05:15:06;;;;;;;20.17;14.30;;;6.20;99.90;;;;;;4992886;28;20502;-82
2022/01/22 05:17:36;;;;;;;20.90;14.60;;;6.30;99.90;;;;;;4993923;28;20456;-83
2022/01/22 05:20:10;;;;;;;24.23;15.13;;;6.30;99.90;;;;;;4996912;28;20466;-83
2022/01/22 05:25:12;;;;;;;20.80;15.33;;;6.30;99.90;;;;;;4995561;28;20840;-84
2022/01/22 05:30:52;;;;;;;18.60;14.47;;;6.30;99.90;;;;;;4990614;28;20461;-82
2022/01/22 05:38:49;;;;;;;22.07;15.80;;;6.30;99.90;;;;;;4989703;28;21020;-84
2022/01/22 05:41:16;;;;;;;22.67;17.03;;;6.30;99.90;;;;;;4987663;28;20457;-82
2022/01/22 05:43:43;;;;;;;19.00;15.87;;;6.30;99.90;;;;;;4990505;28;20812;-83
2022/01/22 05:46:09;;;;;;;22.37;15.80;;;6.30;99.90;;;;;;4991368;28;20727;-83
2022/01/22 05:48:36;;;;;;;22.13;16.50;;;6.30;99.90;;;;;;4996411;28;20459;-80
2022/01/22 05:51:05;;;;;;;24.13;16.10;;;6.30;99.90;;;;;;5000659;28;20569;-82
2022/01/22 06:01:45;;;;;;;26.77;16.77;;;6.30;99.90;;;;;;5014973;28;20467;-82
2022/01/22 06:04:12;;;;;;;23.23;16.40;;;6.30;99.90;;;;;;4997407;28;20459;-83
2022/01/22 06:06:39;;;;;;;25.70;17.77;;;6.30;99.90;;;;;;4997584;28;20916;-82
2022/01/22 06:09:09;;;;;;;29.00;17.70;;;6.30;99.90;;;;;;5000580;28;20444;-82
2022/01/22 06:11:51;;;;;;;26.40;17.03;;;6.30;99.90;;;;;;4999153;28;20463;-81
2022/01/22 06:14:18;;;;;;;24.60;17.60;;;6.30;99.90;;;;;;5000273;28;20779;-82
2022/01/22 06:16:45;;;;;;;20.90;16.00;;;6.30;99.90;;;;;;5000944;28;20472;-82
2022/01/22 06:19:12;;;;;;;23.47;15.77;;;6.30;99.90;;;;;;4995511;28;20457;-81
2022/01/22 06:21:39;;;;;;;22.60;16.60;;;6.40;99.90;;;;;;4998163;28;20471;-81
2022/01/22 06:24:06;;;;;;;25.53;18.80;;;6.40;99.90;;;;;;4999733;28;20451;-80
2022/01/22 06:26:35;;;;;;;25.77;18.13;;;6.40;99.90;;;;;;4990577;28;21022;-80
2022/01/22 06:29:04;;;;;;;19.03;15.30;;;6.40;99.90;;;;;;4986288;28;20452;-80
2022/01/22 06:31:31;;;;;;;25.50;17.10;;;6.40;99.90;;;;;;4983719;28;20455;-80
2022/01/22 06:33:58;;;;;;;29.07;17.87;;;6.40;99.90;;;;;;4989139;28;22111;-80
2022/01/22 06:36:26;;;;;;;28.50;18.40;;;6.40;99.90;;;;;;4992062;28;21007;-80
2022/01/22 06:38:58;;;;;;;23.73;17.00;;;6.40;99.90;;;;;;4994305;28;20474;-81
2022/01/22 06:41:44;;;;;;;23.10;17.00;;;6.40;99.90;;;;;;4992921;28;20490;-80
2022/01/22 06:44:23;;;;;;;26.10;16.80;;;6.40;99.90;;;;;;4989442;28;20474;-82
2022/01/22 06:46:52;;;;;;;24.73;17.60;;;6.40;99.90;;;;;;4985949;28;22005;-83
2022/01/22 06:49:19;;;;;;;30.80;20.17;;;6.40;99.90;;;;;;4980338;28;20494;-82
2022/01/22 06:51:46;;;;;;;27.73;18.80;;;6.40;99.90;;;;;;4984030;28;20470;-83
2022/01/22 06:54:14;;;;;;;25.53;17.23;;;6.40;99.90;;;;;;4987598;28;20467;-83
2022/01/22 06:56:41;;;;;;;24.23;16.93;;;6.40;99.90;;;;;;5004187;28;20467;-81
2022/01/22 06:59:10;;;;;;;27.53;18.50;;;6.40;99.90;;;;;;5005746;28;21333;-83
2022/01/22 07:01:37;;;;;;;24.43;19.03;;;6.40;99.90;;;;;;5005887;28;20463;-80
2022/01/22 07:04:04;;;;;;;31.93;18.43;;;6.40;99.90;;;;;;5002796;28;20519;-81
2022/01/22 07:06:31;;;;;;;28.47;19.67;;;6.40;99.90;;;;;;5000890;28;20490;-80
2022/01/22 07:08:58;;;;;;;23.87;18.13;;;6.50;99.90;;;;;;5004229;28;20462;-80
2022/01/22 07:11:25;;;;;;;26.07;18.63;;;6.40;99.90;;;;;;5010167;28;20459;-81
2022/01/22 07:13:52;;;;;;;28.70;17.93;;;6.40;99.90;;;;;;4984933;28;20467;-80
2022/01/22 07:16:19;;;;;;;24.20;18.47;;;6.40;99.90;;;;;;4986295;28;20475;-82
2022/01/22 07:18:45;;;;;;;26.30;20.07;;;6.40;99.90;;;;;;4988578;28;20467;-83
2022/01/22 07:21:20;;;;;;;26.10;17.83;;;6.50;99.90;;;;;;4992524;28;20475;-80
2022/01/22 07:26:15;;;;;;;30.33;18.67;;;6.50;99.90;;;;;;4991218;28;20491;-83
2022/01/22 07:28:42;;;;;;;27.40;18.80;;;6.50;99.90;;;;;;4994168;28;20481;-83
2022/01/22 07:31:10;;;;;;;34.30;18.80;;;6.60;99.90;;;;;;4996572;28;20455;-82
2022/01/22 07:33:37;;;;;;;25.07;17.67;;;6.60;99.90;;;;;;4993163;28;21270;-82
2022/01/22 07:36:05;;;;;;;26.10;18.67;;;6.50;99.90;;;;;;4992994;28;20483;-83
2022/01/22 07:38:37;;;;;;;31.50;18.83;;;6.60;99.90;;;;;;5001069;28;20526;-82
2022/01/22 07:41:06;;;;;;;27.40;19.70;;;6.60;99.90;;;;;;4995240;28;20555;-83
2022/01/22 07:43:34;;;;;;;26.13;19.13;;;6.60;99.90;;;;;;4994067;28;20467;-80
2022/01/22 07:46:01;;;;;;;29.23;20.00;;;6.60;99.90;;;;;;4991483;28;20479;-81
2022/01/22 07:48:28;;;;;;;31.47;20.47;;;6.60;99.90;;;;;;5016390;28;20446;-83
2022/01/22 07:50:55;;;;;;;30.10;20.53;;;6.60;99.90;;;;;;5016992;28;20444;-79
2022/01/22 07:53:24;;;;;;;28.33;19.40;;;6.60;99.90;;;;;;5013498;28;20443;-84
2022/01/22 07:55:52;;;;;;;27.93;19.20;;;6.60;99.90;;;;;;5000100;28;20514;-82
2022/01/22 07:58:18;;;;;;;24.90;19.73;;;6.60;99.90;;;;;;4984866;28;20805;-83
2022/01/22 08:00:45;;;;;;;29.60;19.60;;;6.60;99.90;;;;;;4985028;28;20567;-81
2022/01/22 08:03:12;;;;;;;25.50;18.83;;;6.70;99.90;;;;;;4981667;28;20531;-83
2022/01/22 08:05:38;;;;;;;30.30;18.77;;;6.60;99.90;;;;;;4981888;28;21108;-82
2022/01/22 08:08:05;;;;;;;31.67;20.07;;;6.60;99.90;;;;;;4977874;28;20451;-81
2022/01/22 08:10:32;;;;;;;25.90;18.53;;;6.70;99.90;;;;;;4977713;28;22193;-82
2022/01/22 08:12:58;;;;;;;29.73;20.73;;;6.70;99.90;;;;;;4978411;28;22025;-81
2022/01/22 08:15:25;;;;;;;25.47;18.83;;;6.70;99.90;;;;;;4981971;28;20480;-80
2022/01/22 08:17:52;;;;;;;31.40;19.80;;;6.70;99.90;;;;;;4979370;28;21121;-82
2022/01/22 08:20:21;;;;;;;26.60;19.00;;;6.60;99.90;;;;;;4982926;28;20468;-83
2022/01/22 08:22:48;;;;;;;28.20;19.23;;;6.60;99.90;;;;;;4984714;28;20462;-82
2022/01/22 08:25:14;;;;;;;34.47;21.17;;;6.70;99.90;;;;;;4984193;28;20489;-83
2022/01/22 08:30:35;;;;;;;28.13;20.10;;;6.70;99.90;;;;;;4971060;28;20988;-81
2022/01/22 08:35:53;;;;;;;25.70;19.30;;;6.70;99.90;;;;;;4987004;28;20479;-82
2022/01/22 08:38:22;;;;;;;26.17;19.17;;;6.70;99.90;;;;;;4981485;28;21420;-80
2022/01/22 08:40:49;;;;;;;34.67;20.83;;;6.80;99.90;;;;;;4984431;28;20455;-81
2022/01/22 08:43:17;;;;;;;26.03;18.60;;;6.80;99.90;;;;;;4983844;28;20471;-81
2022/01/22 08:45:44;;;;;;;27.93;19.13;;;6.80;99.90;;;;;;4981953;28;21388;-82
2022/01/22 08:48:11;;;;;;;26.23;16.70;;;6.90;99.90;;;;;;4981315;28;20542;-82
2022/01/22 08:50:38;;;;;;;27.80;18.37;;;6.90;99.90;;;;;;4983736;28;20457;-81
2022/01/22 08:53:05;;;;;;;29.20;18.83;;;6.90;99.90;;;;;;4999623;28;20464;-82
2022/01/22 08:55:31;;;;;;;26.50;19.50;;;6.90;99.90;;;;;;4984093;28;20486;-82
2022/01/22 08:57:58;;;;;;;28.70;18.60;;;6.90;99.90;;;;;;4981684;28;20559;-81
2022/01/22 09:00:25;;;;;;;29.37;17.93;;;6.90;99.90;;;;;;4980064;28;20457;-81
2022/01/22 09:02:52;;;;;;;21.47;16.87;;;6.90;99.90;;;;;;4978158;28;20914;-83
2022/01/22 09:05:20;;;;;;;27.70;19.10;;;6.90;99.90;;;;;;4980040;28;20480;-81
2022/01/22 09:07:47;;;;;;;29.27;19.67;;;6.90;99.90;;;;;;4980756;28;20484;-81
2022/01/22 09:10:14;;;;;;;25.30;18.30;;;6.90;99.90;;;;;;4986464;28;20447;-82
2022/01/22 09:12:41;;;;;;;31.23;17.87;;;6.90;99.90;;;;;;4992721;28;20463;-83
2022/01/22 09:15:08;;;;;;;25.93;18.10;;;7.00;99.90;;;;;;4995114;28;20518;-83
2022/01/22 09:17:35;;;;;;;25.10;17.03;;;7.00;99.90;;;;;;4989770;28;20459;-82
2022/01/22 09:20:06;;;;;;;24.27;18.10;;;7.00;99.90;;;;;;4990197;28;20459;-83
2022/01/22 09:22:32;;;;;;;24.67;18.00;;;7.10;99.90;;;;;;4985715;28;20858;-83
2022/01/22 09:24:59;;;;;;;23.87;17.10;;;7.10;99.90;;;;;;4977571;28;21189;-81
2022/01/22 09:27:28;;;;;;;26.70;16.60;;;7.10;99.90;;;;;;4980064;28;20843;-83
2022/01/22 09:29:55;;;;;;;24.47;17.07;;;7.10;99.90;;;;;;4979714;28;20452;-83
2022/01/22 09:32:22;;;;;;;22.07;16.50;;;7.20;99.90;;;;;;4983988;28;20539;-82
2022/01/22 09:34:49;;;;;;;24.37;16.90;;;7.20;99.90;;;;;;4982784;28;20514;-83
2022/01/22 09:37:16;;;;;;;21.13;15.30;;;7.20;99.90;;;;;;4980382;28;20471;-83
2022/01/22 09:39:42;;;;;;;23.93;16.37;;;7.20;99.90;;;;;;4977544;28;20463;-82
2022/01/22 09:42:09;;;;;;;24.13;16.43;;;7.20;99.90;;;;;;4980900;28;20474;-84
2022/01/22 09:44:39;;;;;;;20.60;16.67;;;7.20;99.90;;;;;;4982436;28;20455;-82
2022/01/22 09:47:06;;;;;;;24.20;16.07;;;7.30;99.90;;;;;;4996951;28;20522;-80
2022/01/22 09:49:33;;;;;;;24.97;16.20;;;7.40;99.90;;;;;;4994201;28;20452;-81
2022/01/22 09:52:00;;;;;;;16.23;13.20;;;7.60;99.90;;;;;;4993839;28;20969;-82
2022/01/22 09:54:27;;;;;;;24.57;15.37;;;7.60;99.90;;;;;;4997684;28;20491;-83
2022/01/22 09:56:57;;;;;;;20.20;15.03;;;7.60;99.90;;;;;;4997269;28;20468;-82
2022/01/22 09:59:24;;;;;;;19.77;15.23;;;7.70;99.90;;;;;;4999845;28;20534;-83
2022/01/22 10:01:51;;;;;;;17.40;12.47;;;7.70;99.90;;;;;;5010753;28;20447;-81
2022/01/22 10:04:35;;;;;;;19.73;14.20;;;7.70;99.90;;;;;;4984904;28;20541;-84
2022/01/22 10:07:03;;;;;;;19.83;14.60;;;7.70;99.90;;;;;;4990562;28;20504;-81
2022/01/22 10:09:46;;;;;;;17.87;13.13;;;7.70;99.90;;;;;;4994525;28;20447;-82
2022/01/22 10:12:20;;;;;;;19.83;12.50;;;7.60;99.90;;;;;;4989544;28;20539;-83
2022/01/22 10:15:08;;;;;;;18.67;13.93;;;7.60;99.90;;;;;;4982152;28;20455;-82
2022/01/22 10:17:55;;;;;;;17.17;12.87;;;7.60;99.90;;;;;;4979557;28;20464;-82
2022/01/22 10:20:24;;;;;;;17.90;15.00;;;7.60;99.90;;;;;;4977625;28;20469;-82
2022/01/22 10:23:16;;;;;;;17.33;13.57;;;7.60;99.90;;;;;;4993320;28;20496;-83
2022/01/22 10:25:48;;;;;;;19.20;13.63;;;7.60;99.90;;;;;;4981003;28;20475;-81
2022/01/22 10:28:26;;;;;;;20.30;14.80;;;7.50;99.90;;;;;;4977805;28;22690;-82
2022/01/22 10:30:59;;;;;;;19.77;14.63;;;7.50;99.90;;;;;;4986010;28;20590;-82
2022/01/22 10:33:35;;;;;;;19.93;14.00;;;7.60;99.90;;;;;;4978742;28;20471;-83
2022/01/22 10:36:17;;;;;;;21.93;15.80;;;7.60;99.90;;;;;;4985030;28;20478;-81
2022/01/22 10:38:46;;;;;;;19.87;14.90;;;7.60;99.90;;;;;;4979235;28;20459;-82
2022/01/22 10:41:14;;;;;;;22.10;14.00;;;7.50;99.90;;;;;;4988219;28;20454;-83
2022/01/22 10:43:51;;;;;;;20.90;15.60;;;7.40;99.90;;;;;;4990096;28;20457;-82
2022/01/22 10:46:21;;;;;;;19.93;14.57;;;7.40;99.90;;;;;;4991138;28;20721;-82
2022/01/22 10:48:59;;;;;;;19.43;15.67;;;7.40;99.90;;;;;;4990240;28;20464;-82
2022/01/22 10:51:29;;;;;;;21.50;15.17;;;7.40;99.90;;;;;;5002443;28;20455;-83
2022/01/22 10:54:01;;;;;;;21.83;16.33;;;7.40;99.90;;;;;;4986097;28;20447;-82
2022/01/22 10:56:31;;;;;;;24.17;16.13;;;7.40;99.90;;;;;;4985800;28;20478;-83
2022/01/22 10:59:01;;;;;;;23.23;15.93;;;7.50;99.90;;;;;;5057230;22;20482;-81
2022/01/22 11:01:51;;;;;;;20.67;15.17;;;7.40;99.90;;;;;;5027255;28;21048;-83
2022/01/22 11:04:23;;;;;;;26.63;17.17;;;7.50;99.90;;;;;;5019298;28;20454;-82
2022/01/22 11:06:53;;;;;;;23.30;16.10;;;7.50;99.90;;;;;;5004342;28;20492;-82
2022/01/22 11:09:40;;;;;;;22.30;16.80;;;7.50;99.90;;;;;;4995783;28;20453;-83
2022/01/22 11:12:08;;;;;;;20.03;15.80;;;7.50;99.90;;;;;;5002101;28;20603;-83
2022/01/22 11:14:40;;;;;;;23.17;16.77;;;7.40;99.90;;;;;;4999047;28;20451;-81
2022/01/22 11:17:07;;;;;;;21.77;17.17;;;7.40;99.90;;;;;;5000480;28;20476;-83
2022/01/22 11:19:38;;;;;;;21.00;16.30;;;7.40;99.90;;;;;;4997126;28;20458;-82
2022/01/22 11:22:09;;;;;;;22.43;16.43;;;7.50;99.90;;;;;;4999317;28;20566;-83
2022/01/22 11:24:41;;;;;;;22.43;16.00;;;7.40;99.90;;;;;;5001984;28;20548;-83
2022/01/22 11:27:10;;;;;;;24.30;17.30;;;7.40;99.90;;;;;;5014594;28;20486;-82
2022/01/22 11:29:41;;;;;;;21.57;17.00;;;7.50;99.90;;;;;;4997518;28;20451;-83
2022/01/22 11:32:13;;;;;;;25.70;15.10;;;7.50;99.90;;;;;;5012183;28;20541;-83
2022/01/22 11:34:42;;;;;;;25.90;16.53;;;7.50;99.90;;;;;;4998062;28;20500;-81
2022/01/22 11:37:15;;;;;;;24.40;16.87;;;7.50;99.90;;;;;;5002453;28;20459;-79
2022/01/22 11:39:42;;;;;;;18.80;15.00;;;7.50;99.90;;;;;;5001021;28;20818;-82
2022/01/22 11:42:09;;;;;;;22.33;16.33;;;7.50;99.90;;;;;;5011626;28;20710;-82
2022/01/22 11:44:50;;;;;;;19.37;14.20;;;7.60;99.90;;;;;;5014547;28;20455;-81
2022/01/22 11:47:22;;;;;;;24.60;15.37;;;7.60;99.90;;;;;;5009899;28;21068;-83
2022/01/22 11:50:06;;;;;;;20.07;15.00;;;7.60;99.90;;;;;;5004710;28;20459;-82
2022/01/22 11:52:39;;;;;;;17.90;13.60;;;7.70;99.90;;;;;;5000453;28;20452;-83
2022/01/22 11:55:15;;;;;;;17.87;13.10;;;7.80;99.90;;;;;;5002367;28;20476;-84
2022/01/22 11:58:04;;;;;;;18.43;14.20;;;7.90;99.90;;;;;;5001117;28;20478;-84
2022/01/22 12:00:31;;;;;;;19.27;14.00;;;8.00;99.90;;;;;;5000649;28;20471;-83
2022/01/22 12:03:17;;;;;;;15.77;12.77;;;8.10;99.90;;;;;;5002443;28;20467;-83
2022/01/22 12:06:05;;;;;;;15.00;12.73;;;8.10;99.90;;;;;;5007360;28;20477;-82
2022/01/22 12:09:06;;;;;;;16.50;12.10;;;8.10;99.90;;;;;;5005508;28;20482;-82
2022/01/22 12:14:54;;;;;;;16.00;12.23;;;8.00;99.90;;;;;;5002009;28;20455;-83
2022/01/22 12:18:03;;;;;;;19.83;12.87;;;8.00;99.90;;;;;;5002309;28;20718;-81
2022/01/22 12:23:07;;;;;;;17.03;12.40;;;7.90;99.90;;;;;;5002920;28;20944;-82
2022/01/22 12:25:33;;;;;;;20.63;12.33;;;7.90;99.90;;;;;;5006919;28;20573;-82
2022/01/22 12:28:01;;;;;;;19.03;12.57;;;7.80;99.90;;;;;;5006088;28;20485;-83
2022/01/22 12:30:38;;;;;;;16.97;12.53;;;7.90;99.90;;;;;;5018187;28;20501;-83
2022/01/22 12:33:09;;;;;;;18.43;12.53;;;7.90;99.90;;;;;;5004597;28;20728;-81
2022/01/22 12:35:47;;;;;;;17.60;13.50;;;7.80;99.90;;;;;;4999337;28;20482;-82
2022/01/22 12:38:30;;;;;;;20.40;12.97;;;7.80;99.90;;;;;;4998726;28;20468;-83
2022/01/22 12:44:06;;;;;;;20.53;14.13;;;7.80;99.90;;;;;;4997397;28;20462;-82
2022/01/22 12:46:48;;;;;;;19.10;15.07;;;7.80;99.90;;;;;;4999425;28;21080;-82
2022/01/22 12:49:18;;;;;;;20.57;15.93;;;7.80;99.90;;;;;;4999233;28;21015;-83
2022/01/22 12:51:47;;;;;;;20.20;14.20;;;7.80;99.90;;;;;;4997465;28;20463;-82
2022/01/22 12:54:26;;;;;;;19.30;14.53;;;7.80;99.90;;;;;;4998014;28;20550;-80
2022/01/22 12:57:08;;;;;;;19.53;14.10;;;7.80;99.90;;;;;;5001255;28;20486;-81
2022/01/22 12:59:53;;;;;;;24.33;15.23;;;7.80;99.90;;;;;;5000515;28;20518;-82
2022/01/22 13:02:50;;;;;;;20.53;15.10;;;7.80;99.90;;;;;;5008152;28;20461;-81
2022/01/22 13:05:19;;;;;;;20.50;14.70;;;7.80;99.90;;;;;;5000253;28;20493;-83
2022/01/22 13:07:58;;;;;;;21.13;14.33;;;7.80;99.90;;;;;;4994500;28;20466;-83
2022/01/22 13:10:32;;;;;;;19.30;12.53;;;7.80;99.90;;;;;;5011585;28;20443;-81
2022/01/22 13:13:01;;;;;;;16.33;11.53;;;7.90;99.90;;;;;;5007990;28;20538;-83
2022/01/22 13:15:30;;;;;;;17.10;13.03;;;7.90;99.90;;;;;;5011908;28;20486;-82
2022/01/22 13:17:59;;;;;;;20.70;13.13;;;8.00;99.90;;;;;;5004189;28;20852;-82
2022/01/22 13:20:30;;;;;;;16.43;12.23;;;8.00;99.90;;;;;;5005410;28;20480;-82
2022/01/22 13:22:58;;;;;;;17.83;12.17;;;8.00;99.90;;;;;;5005942;28;20928;-81
2022/01/22 13:25:26;;;;;;;20.70;13.47;;;7.90;99.90;;;;;;5006227;28;20515;-81
2022/01/22 13:28:03;;;;;;;21.57;13.80;;;7.90;99.90;;;;;;5004412;28;20510;-82
2022/01/22 13:30:35;;;;;;;21.00;12.77;;;7.90;99.90;;;;;;4999691;28;20482;-83
2022/01/22 13:33:24;;;;;;;19.23;13.33;;;7.90;99.90;;;;;;5001918;28;20450;-80
2022/01/22 13:39:18;;;;;;;23.43;13.60;;;7.90;99.90;;;;;;4999773;28;20459;-82
2022/01/22 13:47:46;;;;;;;16.63;12.37;;;8.00;99.90;;;;;;4999727;28;20489;-82
2022/01/22 13:50:14;;;;;;;18.13;14.17;;;8.00;99.90;;;;;;4998519;28;20466;-83
2022/01/22 13:52:43;;;;;;;22.97;13.40;;;8.00;99.90;;;;;;5000295;28;20455;-82
2022/01/22 13:55:14;;;;;;;18.23;14.30;;;8.00;99.90;;;;;;4999611;28;20471;-83
2022/01/22 13:57:44;;;;;;;18.97;13.30;;;8.00;99.90;;;;;;5003229;28;20459;-80
2022/01/22 14:00:15;;;;;;;21.17;13.70;;;8.00;99.90;;;;;;5000290;28;20479;-82
2022/01/22 14:05:31;;;;;;;21.93;17.30;;;8.00;99.90;;;;;;4996539;28;20864;-82
2022/01/22 14:08:08;;;;;;;20.87;14.40;;;8.00;99.90;;;;;;4997209;28;20487;-82
2022/01/22 14:10:36;;;;;;;22.80;15.00;;;8.00;99.90;;;;;;5006257;28;20458;-81
2022/01/22 14:13:09;;;;;;;20.43;14.27;;;8.00;99.90;;;;;;5009753;28;20454;-81
2022/01/22 14:15:41;;;;;;;21.73;14.10;;;7.90;99.90;;;;;;5015122;28;20477;-83
2022/01/22 14:18:19;;;;;;;21.53;14.70;;;7.90;99.90;;;;;;5029934;28;20490;-81
2022/01/22 14:20:54;;;;;;;20.57;15.80;;;7.90;99.90;;;;;;5006573;28;20465;-82
2022/01/22 14:23:24;;;;;;;21.90;15.60;;;7.90;99.90;;;;;;5025492;28;20490;-83
2022/01/22 14:25:59;;;;;;;23.97;16.00;;;8.00;99.90;;;;;;5007525;28;20546;-81
2022/01/22 14:28:43;;;;;;;23.07;15.80;;;8.00;99.90;;;;;;5018700;28;20475;-84
2022/01/22 14:31:29;;;;;;;22.83;16.07;;;7.90;99.90;;;;;;5003356;28;20563;-80
2022/01/22 14:34:03;;;;;;;24.00;16.20;;;7.90;99.90;;;;;;5001544;28;20603;-81
2022/01/22 14:36:47;;;;;;;22.00;16.10;;;7.90;99.90;;;;;;5011993;28;20463;-82
2022/01/22 14:45:07;;;;;;;24.60;17.90;;;7.90;99.90;;;;;;5007655;28;20512;-83
2022/01/22 14:47:38;;;;;;;21.80;16.87;;;7.90;99.90;;;;;;5011464;28;20512;-82
2022/01/22 14:50:10;;;;;;;24.93;17.90;;;7.90;99.90;;;;;;5013818;28;20441;-80
2022/01/22 14:52:41;;;;;;;24.00;18.80;;;7.90;99.90;;;;;;5031143;28;20447;-82
2022/01/22 14:55:08;;;;;;;25.90;17.50;;;7.90;99.90;;;;;;5009174;28;20467;-81